Huvudsida
METAR-TAF:

METAR-TAF

Flygplatser :

Phnom Penhs internationella flygplats

Phnom Penh, Kambodja

latitud: 11-33N, longitud: 104-51E, höjd: 10 m

Aktuellt väderrapport

Denna rapport gjordes för 32 minuter sedan, klockan 19:00 UTC
Stilla vind
Temperatur 27°C
Fuktighet 89%
Tryck 1011 hPa
Sikt: 9000 m
Spridda moln på en höjd av 1500 ft
Få moln på en höjd av 1700 ft, Cumulonimbus.

METAR: VDPP 211900Z 00000KT 9000 SCT015 FEW017CB 27/25 Q1011 CB:E/SE

Tid: 02:32 (19:32 UTC)

Väderprognos

Denna rapport gjordes för 2 timmar och 32 minuter sedan, klockan 17:00 UTC
Prognos gäller från 21 kl. 18 UTC till 22 kl. 12 UTC
Vind 5 kt från syd
Sikt 10 km eller mer
Spridda moln på en höjd av 1700 ft
Temporärt
från 21 kl. 19 UTC till 21 kl. 23 UTC
Spridda moln på en höjd av 1500 ft
Få moln på en höjd av 1700 ft, Cumulonimbus.
Spridda moln på en höjd av 4000 ft

TAF: VDPP 211700Z 2118/2212 17005KT 9999 SCT017 TEMPO 2119/2123 SCT015 FEW017CB SCT040

Aktuella väderrapporter och prognoser från 4000 flygplatser (METAR- och TAF-rapporter).

De tillgängliga stationerna syns som gula och röda prickar på kartan.

För musen över prickarna för att se namnen på stationerna.

Klicka sedan för att få väderrapporter och prognoser.

För att ändra kartan: Klicka på de gröna knapparna med ett svart kors på för att zooma in; den gröna knappen med ett streck på för att zooma ut; eller på de gröna pilarna för angränsande kartor.


METAR-TAF: